MUC | München Airways

 METAR UND TAF INFORMATION

METAR FOR EDFH
ADDS - METARS form results

(0840 UTC 19 March 2019)
Data provider http://aviationweather.gov/metar/data/
 
METAR text: EDFH 190820Z 01003KT 330V050 CAVOK 03/M02 Q1026
Conditions at: EDFH (HAHN , DE) observed 0820 UTC 19 March 2019
Temperature: 3.0°C (37°F)
Dewpoint: -2.0°C (28°F) [RH = 70%]
Pressure (altimeter): 30.30 inches Hg (1026.0 mb)
Winds: from the N (10 degrees) at 3 MPH (3 knots; 1.5 m/s)
Visibility: 6 or more miles (10+ km)
Ceiling: ceiling and visibility are OK
Clouds: unknown
Weather: no significant weather observed at this time

METAR text: EDFH 190750Z 36003KT 330V040 CAVOK 02/M02 Q1026
Conditions at: EDFH (HAHN , DE) observed 0750 UTC 19 March 2019
Temperature: 2.0°C (36°F)
Dewpoint: -2.0°C (28°F) [RH = 75%]
Pressure (altimeter): 30.30 inches Hg (1026.0 mb)
Winds: from the N (360 degrees) at 3 MPH (3 knots; 1.5 m/s)
Visibility: 6 or more miles (10+ km)
Ceiling: ceiling and visibility are OK
Clouds: unknown
Weather: no significant weather observed at this time

Forecast for: EDFH (HAHN , DE)
Text: TAF EDFH 190500Z 1906/2006 34004KT CAVOK
Forecast period: 0600 to 2000 UTC 19 March 2019
Forecast type: FROM: standard forecast or significant change
Winds: from the NNW (340 degrees) at 5 MPH (4 knots; 2.1 m/s)
Visibility: 6 or more miles 10+ km)
Ceiling: unknown
Clouds: missing
Weather: NSW  (no significant weather)
Text: BECMG 1920/1922 14005KT
Forecast period: 2000 UTC 19 March 2019 to 0600 UTC 20 March 2019
Forecast type: BECOMING: Conditions expected to become as follows by 2200 UTC 19 March 2019
Winds: from the SE (140 degrees) at 6 MPH (5 knots; 2.6 m/s)
Visibility: 6 or more miles 10+ km)
Ceiling: unknown
Clouds: missing
Weather: NSW  (no significant weather)

 FLUGHAFENKARTE

 RUNWAY INFORMATION
Runway 03 Runway length 12467 ft Runway width 148 ft
Runway elevation 1649 ft Runway displaced threshold 3461 ft Runway heading 32
Runway 21 Runway length 12467 ft Runway width 148 ft
Runway elevation 1595 ft Runway displaced threshold 984 ft Runway heading 212

 AIRPORT FREQUENCIES
Type AFIS Name LANGEN INF Frequency 123.525 MHZ
Type APP Name LANGEN RAD Frequency 125.6 MHZ
Type ATIS Name ATIS Frequency 136.35 MHZ
Type GND Name GND Frequency 121.975 MHZ
Type TWR Name TWR Frequency 119.65 MHZ

 AIRPORT NEAR NAVIGATION AIDS
Type NDB Name Hahn Frequency 376 KHZ
Type DME Name Hahn Frequency 116950 KHZ